Christos Xxxiv — SVA6643 — position and weather

sailwx.info

Track history (hours):
 
Tides and Currents Weather Stations Pressure Air Temp Water Temp Dewpoint Dewpoint Depression Visibility Wind Speed Wind Dir Waves Ship Positions

Christos Xxxiv

Last reported at 2018-Feb-19 08:12 UTC. Time now 2018-Feb-19 12:07 UTC.
Position N 37°58' E 023°34'.

Length 37 m; draft 5.1 m.

Type: Tug. MMSI: 241398000.

Date/timePositionNaut miles runAvg speedWind from/ knotsBaromVisibWave heightAir tempDewpointWater temp
2018-Feb-19 08:12N 37°58' E 023°34'0 0.0
2018-Feb-19 08:00N 37°58' E 023°34'0 0.0
2018-Feb-19 07:30N 37°58' E 023°34'0 0.0
2018-Feb-19 07:00N 37°58' E 023°34'1 2.6
2018-Feb-19 06:30N 37°57' E 023°35'1 1.8
2018-Feb-19 06:01N 37°56' E 023°35'0 1.0
2018-Feb-19 05:30N 37°57' E 023°35'1 1.9
2018-Feb-19 05:00N 37°58' E 023°34'  
2018-Feb-16 20:40N 37°58' E 023°34'0 0.0
2018-Feb-16 20:30N 37°58' E 023°34'3 6.4
2018-Feb-16 20:00N 38°00' E 023°31'510.8
2018-Feb-16 19:30N 37°59' E 023°25'2 3.4
2018-Feb-16 19:00N 37°58' E 023°23'0 0.1
2018-Feb-16 18:30N 37°58' E 023°23'1 2.3
2018-Feb-16 18:01N 37°58' E 023°24'0 0.0
2018-Feb-16 17:30N 37°58' E 023°24'1 1.6
2018-Feb-16 17:01N 37°58' E 023°25'5 9.0
2018-Feb-16 16:30N 38°01' E 023°29'5 9.6
2018-Feb-16 16:01N 37°57' E 023°33'0 0.6
2018-Feb-16 15:30N 37°57' E 023°34'0 0.0
2018-Feb-16 15:00N 37°57' E 023°34'0 0.0
2018-Feb-16 14:30N 37°57' E 023°34'1 2.5
2018-Feb-16 14:00N 37°57' E 023°35'0 0.5
2018-Feb-16 13:30N 37°57' E 023°35'1 1.9
2018-Feb-16 13:00N 37°57' E 023°34'0 0.0
2018-Feb-16 12:30N 37°57' E 023°34'0 0.0
2018-Feb-15 21:11N 37°58' E 023°34'0 0.9
2018-Feb-15 21:01N 37°57' E 023°34'5 9.0
2018-Feb-15 20:30N 38°01' E 023°30'4 8.9
2018-Feb-15 20:01N 37°58' E 023°26'2 4.1
2018-Feb-15 19:30N 37°58' E 023°23'1 1.6
2018-Feb-15 19:01N 37°57' E 023°23'1 2.0
2018-Feb-15 18:31N 37°56' E 023°23'1 1.4
2018-Feb-15 18:00N 37°57' E 023°24'3 6.3
2018-Feb-15 17:30N 37°60' E 023°26'510.0
2018-Feb-15 17:01N 38°00' E 023°32'3 6.3
2018-Feb-15 16:30N 37°58' E 023°34'0 0.0
2018-Feb-15 16:00N 37°58' E 023°34'0 0.0
2018-Feb-15 15:31N 37°58' E 023°34'0 0.0
2018-Feb-15 15:01N 37°58' E 023°34'0 0.0
2018-Feb-15 14:31N 37°58' E 023°34'0 0.0
2018-Feb-15 14:00N 37°58' E 023°34'0 0.0
2018-Feb-15 13:30N 37°58' E 023°34'0 0.0
2018-Feb-15 13:00N 37°58' E 023°34'0 0.0
2018-Feb-15 12:30N 37°58' E 023°34'0 0.0
2018-Feb-14 16:15N 37°58' E 023°34'1 2.5
2018-Feb-14 16:01N 37°57' E 023°34'1 1.4
2018-Feb-14 15:29N 37°57' E 023°35'1 1.1
2018-Feb-14 15:00N 37°57' E 023°35'1 1.0
2018-Feb-14 14:31N 37°56' E 023°34'1 1.5
2018-Feb-14 14:00N 37°57' E 023°34'1 1.1
2018-Feb-14 13:30N 37°58' E 023°34'0 0.0
2018-Feb-14 13:00N 37°58' E 023°34'0 0.0
2018-Feb-14 12:30N 37°58' E 023°34'0 0.0
2018-Feb-14 12:00N 37°58' E 023°34'0 0.0
2018-Feb-14 11:30N 37°58' E 023°34'0 0.0
2018-Feb-14 11:00N 37°58' E 023°34'0 0.0
2018-Feb-14 10:30N 37°58' E 023°34'1 1.3
2018-Feb-14 10:00N 37°57' E 023°33'0 0.0
2018-Feb-14 09:30N 37°57' E 023°33'0 0.0
2018-Feb-14 09:00N 37°57' E 023°33'0 0.0
2018-Feb-14 08:30N 37°57' E 023°33'0 0.0
2018-Feb-14 08:00N 37°57' E 023°33'1 2.9
2018-Feb-14 07:30N 37°59' E 023°33'3 6.4
2018-Feb-14 07:00N 38°01' E 023°35'0 0.4
2018-Feb-14 06:30N 38°01' E 023°36'4 8.6
2018-Feb-14 06:01N 37°57' E 023°33'0 0.7
2018-Feb-14 05:30N 37°58' E 023°34'0 0.0
2018-Feb-14 05:00N 37°58' E 023°34'0 0.0
2018-Feb-13 14:05N 37°58' E 023°34'0 0.1
2018-Feb-13 14:00N 37°58' E 023°34'3 6.2
2018-Feb-13 13:30N 37°55' E 023°33'612.2
2018-Feb-13 13:00N 37°52' E 023°26'612.2
2018-Feb-13 12:30N 37°52' E 023°18'612.3
2018-Feb-13 12:00N 37°53' E 023°10'612.3
2018-Feb-13 11:30N 37°54' E 023°03'4 6.2
2018-Feb-13 10:47N 37°57' E 022°58'1 4.8
2018-Feb-13 10:31N 37°58' E 022°57'510.0
2018-Feb-13 10:00N 38°00' E 022°51'5 9.2
2018-Feb-13 09:30N 38°03' E 022°46'5 9.3
2018-Feb-13 08:59N 38°05' E 022°41'2 0.1
2018-Feb-11 20:26N 38°05' E 022°44'3 7.2
2018-Feb-11 20:00N 38°03' E 022°47'3 6.9
2018-Feb-11 19:30N 38°01' E 022°50'3 6.7
2018-Feb-11 19:00N 37°59' E 022°54'4 7.9
2018-Feb-11 18:30N 37°57' E 022°58'3 5.7
2018-Feb-11 18:00N 37°55' E 023°01'4 8.1
2018-Feb-11 17:30N 37°54' E 023°06'612.4
2018-Feb-11 17:00N 37°55' E 023°13'612.2
2018-Feb-11 16:30N 37°57' E 023°21'4 8.8
2018-Feb-11 16:00N 37°59' E 023°25'611.2
2018-Feb-11 15:30N 38°00' E 023°32'3 5.9
2018-Feb-11 15:00N 37°58' E 023°34'0 0.0
2018-Feb-11 14:30N 37°58' E 023°34'0 0.0
2018-Feb-10 12:02N 37°58' E 023°34'0 0.0
2018-Feb-10 12:00N 37°58' E 023°34'1 1.1
2018-Feb-10 11:31N 37°57' E 023°33'0 0.4
2018-Feb-10 11:01N 37°57' E 023°33'2 4.2
2018-Feb-10 10:30N 37°56' E 023°35'1 2.1
2018-Feb-10 10:00N 37°54' E 023°35'1 2.5
2018-Feb-10 09:31N 37°53' E 023°35'1 1.1
2018-Feb-10 09:00N 37°53' E 023°35'2 4.2
2018-Feb-10 08:31N 37°51' E 023°35'4 7.7
2018-Feb-10 08:01N 37°47' E 023°35'4 8.5
2018-Feb-10 07:30N 37°43' E 023°35'4 8.4
2018-Feb-10 07:00N 37°38' E 023°35'4 7.9
2018-Feb-10 06:30N 37°34' E 023°35'12 9.1
2018-Feb-10 05:13N 37°23' E 023°36'19 1.6
2018-Feb-09 17:30N 37°41' E 023°35'612.7
2018-Feb-09 17:00N 37°48' E 023°35'612.6
2018-Feb-09 16:30N 37°54' E 023°35'4 0.5
2018-Feb-09 09:31N 37°57' E 023°34'  
Track history (hours):
 
Tides and Currents Weather Stations Pressure Air Temp Water Temp Dewpoint Dewpoint Depression Visibility Wind Speed Wind Dir Waves Ship Positions

Christos Xxxiv

Last reported at 2018-Feb-19 08:12 UTC. Time now 2018-Feb-19 12:07 UTC.
Position N 37°58' E 023°34'.

Length 37 m; draft 5.1 m.

Type: Tug. MMSI: 241398000.

Date/timePositionNaut miles runAvg speedWind from/ knotsBaromVisibWave heightAir tempDewpointWater temp
2018-Feb-19 08:12N 37°58' E 023°34'0 0.0
2018-Feb-19 08:00N 37°58' E 023°34'0 0.0
2018-Feb-19 07:30N 37°58' E 023°34'0 0.0
2018-Feb-19 07:00N 37°58' E 023°34'1 2.6
2018-Feb-19 06:30N 37°57' E 023°35'1 1.8
2018-Feb-19 06:01N 37°56' E 023°35'0 1.0
2018-Feb-19 05:30N 37°57' E 023°35'1 1.9
2018-Feb-19 05:00N 37°58' E 023°34'  
2018-Feb-16 20:40N 37°58' E 023°34'0 0.0
2018-Feb-16 20:30N 37°58' E 023°34'3 6.4
2018-Feb-16 20:00N 38°00' E 023°31'510.8
2018-Feb-16 19:30N 37°59' E 023°25'2 3.4
2018-Feb-16 19:00N 37°58' E 023°23'0 0.1
2018-Feb-16 18:30N 37°58' E 023°23'1 2.3
2018-Feb-16 18:01N 37°58' E 023°24'0 0.0
2018-Feb-16 17:30N 37°58' E 023°24'1 1.6
2018-Feb-16 17:01N 37°58' E 023°25'5 9.0
2018-Feb-16 16:30N 38°01' E 023°29'5 9.6
2018-Feb-16 16:01N 37°57' E 023°33'0 0.6
2018-Feb-16 15:30N 37°57' E 023°34'0 0.0
2018-Feb-16 15:00N 37°57' E 023°34'0 0.0
2018-Feb-16 14:30N 37°57' E 023°34'1 2.5
2018-Feb-16 14:00N 37°57' E 023°35'0 0.5
2018-Feb-16 13:30N 37°57' E 023°35'1 1.9
2018-Feb-16 13:00N 37°57' E 023°34'0 0.0
2018-Feb-16 12:30N 37°57' E 023°34'0 0.0
2018-Feb-15 21:11N 37°58' E 023°34'0 0.9
2018-Feb-15 21:01N 37°57' E 023°34'5 9.0
2018-Feb-15 20:30N 38°01' E 023°30'4 8.9
2018-Feb-15 20:01N 37°58' E 023°26'2 4.1
2018-Feb-15 19:30N 37°58' E 023°23'1 1.6
2018-Feb-15 19:01N 37°57' E 023°23'1 2.0
2018-Feb-15 18:31N 37°56' E 023°23'1 1.4
2018-Feb-15 18:00N 37°57' E 023°24'3 6.3
2018-Feb-15 17:30N 37°60' E 023°26'510.0
2018-Feb-15 17:01N 38°00' E 023°32'3 6.3
2018-Feb-15 16:30N 37°58' E 023°34'0 0.0
2018-Feb-15 16:00N 37°58' E 023°34'0 0.0
2018-Feb-15 15:31N 37°58' E 023°34'0 0.0
2018-Feb-15 15:01N 37°58' E 023°34'0 0.0
2018-Feb-15 14:31N 37°58' E 023°34'0 0.0
2018-Feb-15 14:00N 37°58' E 023°34'0 0.0
2018-Feb-15 13:30N 37°58' E 023°34'0 0.0
2018-Feb-15 13:00N 37°58' E 023°34'0 0.0
2018-Feb-15 12:30N 37°58' E 023°34'0 0.0
2018-Feb-14 16:15N 37°58' E 023°34'1 2.5
2018-Feb-14 16:01N 37°57' E 023°34'1 1.4
2018-Feb-14 15:29N 37°57' E 023°35'1 1.1
2018-Feb-14 15:00N 37°57' E 023°35'1 1.0
2018-Feb-14 14:31N 37°56' E 023°34'1 1.5
2018-Feb-14 14:00N 37°57' E 023°34'1 1.1
2018-Feb-14 13:30N 37°58' E 023°34'0 0.0
2018-Feb-14 13:00N 37°58' E 023°34'0 0.0
2018-Feb-14 12:30N 37°58' E 023°34'0 0.0
2018-Feb-14 12:00N 37°58' E 023°34'0 0.0
2018-Feb-14 11:30N 37°58' E 023°34'0 0.0
2018-Feb-14 11:00N 37°58' E 023°34'0 0.0
2018-Feb-14 10:30N 37°58' E 023°34'1 1.3
2018-Feb-14 10:00N 37°57' E 023°33'0 0.0
2018-Feb-14 09:30N 37°57' E 023°33'0 0.0
2018-Feb-14 09:00N 37°57' E 023°33'0 0.0
2018-Feb-14 08:30N 37°57' E 023°33'0 0.0
2018-Feb-14 08:00N 37°57' E 023°33'1 2.9
2018-Feb-14 07:30N 37°59' E 023°33'3 6.4
2018-Feb-14 07:00N 38°01' E 023°35'0 0.4
2018-Feb-14 06:30N 38°01' E 023°36'4 8.6
2018-Feb-14 06:01N 37°57' E 023°33'0 0.7
2018-Feb-14 05:30N 37°58' E 023°34'0 0.0
2018-Feb-14 05:00N 37°58' E 023°34'0 0.0
2018-Feb-13 14:05N 37°58' E 023°34'0 0.1
2018-Feb-13 14:00N 37°58' E 023°34'3 6.2
2018-Feb-13 13:30N 37°55' E 023°33'612.2
2018-Feb-13 13:00N 37°52' E 023°26'612.2
2018-Feb-13 12:30N 37°52' E 023°18'612.3
2018-Feb-13 12:00N 37°53' E 023°10'612.3
2018-Feb-13 11:30N 37°54' E 023°03'4 6.2
2018-Feb-13 10:47N 37°57' E 022°58'1 4.8
2018-Feb-13 10:31N 37°58' E 022°57'510.0
2018-Feb-13 10:00N 38°00' E 022°51'5 9.2
2018-Feb-13 09:30N 38°03' E 022°46'5 9.3
2018-Feb-13 08:59N 38°05' E 022°41'2 0.1
2018-Feb-11 20:26N 38°05' E 022°44'3 7.2
2018-Feb-11 20:00N 38°03' E 022°47'3 6.9
2018-Feb-11 19:30N 38°01' E 022°50'3 6.7
2018-Feb-11 19:00N 37°59' E 022°54'4 7.9
2018-Feb-11 18:30N 37°57' E 022°58'3 5.7
2018-Feb-11 18:00N 37°55' E 023°01'4 8.1
2018-Feb-11 17:30N 37°54' E 023°06'612.4
2018-Feb-11 17:00N 37°55' E 023°13'612.2
2018-Feb-11 16:30N 37°57' E 023°21'4 8.8
2018-Feb-11 16:00N 37°59' E 023°25'611.2
2018-Feb-11 15:30N 38°00' E 023°32'3 5.9
2018-Feb-11 15:00N 37°58' E 023°34'0 0.0
2018-Feb-11 14:30N 37°58' E 023°34'0 0.0
2018-Feb-10 12:02N 37°58' E 023°34'0 0.0
2018-Feb-10 12:00N 37°58' E 023°34'1 1.1
2018-Feb-10 11:31N 37°57' E 023°33'0 0.4
2018-Feb-10 11:01N 37°57' E 023°33'2 4.2
2018-Feb-10 10:30N 37°56' E 023°35'1 2.1
2018-Feb-10 10:00N 37°54' E 023°35'1 2.5
2018-Feb-10 09:31N 37°53' E 023°35'1 1.1
2018-Feb-10 09:00N 37°53' E 023°35'2 4.2
2018-Feb-10 08:31N 37°51' E 023°35'4 7.7
2018-Feb-10 08:01N 37°47' E 023°35'4 8.5
2018-Feb-10 07:30N 37°43' E 023°35'4 8.4
2018-Feb-10 07:00N 37°38' E 023°35'4 7.9
2018-Feb-10 06:30N 37°34' E 023°35'12 9.1
2018-Feb-10 05:13N 37°23' E 023°36'19 1.6
2018-Feb-09 17:30N 37°41' E 023°35'612.7
2018-Feb-09 17:00N 37°48' E 023°35'612.6
2018-Feb-09 16:30N 37°54' E 023°35'4 0.5
2018-Feb-09 09:31N 37°57' E 023°34'  

Dump ship's entire track history